Time;durP1;ratioP1;P1;durP2;ratioP2;P2;SDS_P1;SDS_P2;PMS_P1;PMS_P2;Temp;Humidity;BMP_temperature;BMP_pressure;BME280_temperature;BME280_humidity;BME280_pressure;Samples;Min_cycle;Max_cycle;Signal;HPM_P1;HPM_P2
2021/01/22 00:00:42;;;;;;;3.57;1.80;;;6.10;99.90;;;;;;5012195;28;20320;-49
2021/01/22 00:03:09;;;;;;;4.53;1.73;;;6.10;99.90;;;;;;5012016;28;20229;-49
2021/01/22 00:05:38;;;;;;;3.40;1.57;;;6.10;99.90;;;;;;5011022;28;20703;-49
2021/01/22 00:08:05;;;;;;;5.77;2.00;;;6.10;99.90;;;;;;5011449;28;20365;-49
2021/01/22 00:10:33;;;;;;;5.43;2.00;;;6.10;99.90;;;;;;5006985;28;20566;-49
2021/01/22 00:13:00;;;;;;;3.53;2.00;;;6.10;99.90;;;;;;5023096;28;21080;-49
2021/01/22 00:15:28;;;;;;;4.87;1.90;;;6.10;99.90;;;;;;5024793;28;20240;-49
2021/01/22 00:17:55;;;;;;;3.63;1.90;;;6.20;99.90;;;;;;5011724;28;20689;-49
2021/01/22 00:20:23;;;;;;;5.57;2.17;;;6.20;99.90;;;;;;5011077;28;20296;-49
2021/01/22 00:22:51;;;;;;;3.83;1.83;;;6.20;99.90;;;;;;5019070;28;20287;-49
2021/01/22 00:25:18;;;;;;;4.60;2.30;;;6.20;99.90;;;;;;5025997;28;20236;-49
2021/01/22 00:27:46;;;;;;;3.90;2.43;;;6.20;99.90;;;;;;5024205;28;20324;-49
2021/01/22 00:30:15;;;;;;;4.80;2.87;;;6.30;99.90;;;;;;5011787;28;20322;-49
2021/01/22 00:32:42;;;;;;;4.23;2.80;;;6.40;99.90;;;;;;4995857;28;20332;-50
2021/01/22 00:35:11;;;;;;;5.10;2.60;;;6.40;99.90;;;;;;4991274;28;20259;-49
2021/01/22 00:37:38;;;;;;;5.67;2.60;;;6.40;99.90;;;;;;4991621;28;20237;-49
2021/01/22 00:40:09;;;;;;;3.73;2.07;;;6.50;99.90;;;;;;4990313;28;20287;-49
2021/01/22 00:42:37;;;;;;;3.97;2.47;;;6.50;99.90;;;;;;5013996;28;20596;-49
2021/01/22 00:45:06;;;;;;;6.87;2.50;;;6.50;99.90;;;;;;5030229;28;20243;-49
2021/01/22 00:47:34;;;;;;;4.43;2.47;;;6.60;99.90;;;;;;5030539;28;20327;-49
2021/01/22 00:50:02;;;;;;;4.07;2.40;;;6.70;99.90;;;;;;5030495;28;20712;-49
2021/01/22 00:52:30;;;;;;;4.33;2.43;;;6.70;99.90;;;;;;5002065;28;20721;-49
2021/01/22 00:54:58;;;;;;;3.50;2.43;;;6.80;99.90;;;;;;4989251;28;20236;-49
2021/01/22 00:57:45;;;;;;;4.63;2.40;;;6.90;99.90;;;;;;4991224;28;20284;-49
2021/01/22 01:00:15;;;;;;;3.60;2.30;;;6.90;99.90;;;;;;5006189;28;20237;-49
2021/01/22 01:02:52;;;;;;;3.53;2.20;;;6.90;99.90;;;;;;5013460;28;20302;-50
2021/01/22 01:05:22;;;;;;;5.47;2.73;;;6.90;99.90;;;;;;5027149;28;20241;-49
2021/01/22 01:07:49;;;;;;;4.00;3.10;;;7.00;99.90;;;;;;5011327;28;20703;-49
2021/01/22 01:10:24;;;;;;;4.70;2.47;;;7.00;99.90;;;;;;5025893;28;20239;-49
2021/01/22 01:13:21;;;;;;;4.17;2.73;;;7.10;99.90;;;;;;5009633;28;20624;-49
2021/01/22 01:16:11;;;;;;;3.20;2.53;;;7.20;99.90;;;;;;5010004;28;20237;-50
2021/01/22 01:18:39;;;;;;;4.00;3.00;;;7.20;99.90;;;;;;5010208;28;20236;-49
2021/01/22 01:21:07;;;;;;;2.80;2.50;;;7.20;99.90;;;;;;5015431;28;20236;-49
2021/01/22 01:23:34;;;;;;;5.87;3.00;;;7.30;99.90;;;;;;5019308;28;20724;-50
2021/01/22 01:26:02;;;;;;;3.67;2.67;;;7.30;99.90;;;;;;5017309;28;20249;-49
2021/01/22 01:28:30;;;;;;;3.70;2.47;;;7.30;99.90;;;;;;5010301;28;20320;-49
2021/01/22 01:30:57;;;;;;;3.60;2.50;;;7.40;99.90;;;;;;5009955;28;20307;-49
2021/01/22 01:33:24;;;;;;;4.13;2.53;;;7.40;99.90;;;;;;4990288;28;20288;-49
2021/01/22 01:35:52;;;;;;;4.83;2.70;;;7.40;99.90;;;;;;4990030;28;20238;-49
2021/01/22 01:38:19;;;;;;;3.60;2.60;;;7.40;99.90;;;;;;4990468;28;20245;-49
2021/01/22 01:40:47;;;;;;;3.93;2.53;;;7.40;99.90;;;;;;4990724;28;20705;-49
2021/01/22 01:43:15;;;;;;;2.57;2.17;;;7.40;99.90;;;;;;4990612;28;20284;-49
2021/01/22 01:45:43;;;;;;;2.80;2.20;;;7.40;99.90;;;;;;4997747;28;20248;-49
2021/01/22 01:48:11;;;;;;;4.27;2.37;;;7.40;99.90;;;;;;5012452;28;20233;-50
2021/01/22 01:50:40;;;;;;;3.20;2.50;;;7.50;99.90;;;;;;5017541;28;20225;-50
2021/01/22 01:53:08;;;;;;;2.10;1.87;;;7.50;99.90;;;;;;5023303;28;20715;-50
2021/01/22 01:55:36;;;;;;;3.67;1.90;;;7.50;99.90;;;;;;5028793;28;20323;-49
2021/01/22 01:58:05;;;;;;;2.27;2.07;;;7.50;99.90;;;;;;5029558;28;22892;-49
2021/01/22 02:00:33;;;;;;;3.27;2.10;;;7.50;99.90;;;;;;5029972;28;20729;-50
2021/01/22 02:03:02;;;;;;;2.10;1.90;;;7.60;99.90;;;;;;5014927;28;20636;-49
2021/01/22 02:05:30;;;;;;;3.60;2.37;;;7.60;99.90;;;;;;5009682;28;20237;-49
2021/01/22 02:07:58;;;;;;;3.00;2.17;;;7.70;99.90;;;;;;5023806;28;20224;-49
2021/01/22 02:10:25;;;;;;;2.40;2.00;;;7.60;99.90;;;;;;5020740;28;20240;-51
2021/01/22 02:12:55;;;;;;;2.40;2.20;;;7.70;99.90;;;;;;5012886;28;20232;-50
2021/01/22 02:15:23;;;;;;;2.53;2.27;;;7.70;99.90;;;;;;5028473;28;20316;-49
2021/01/22 02:17:52;;;;;;;4.07;2.30;;;7.70;99.90;;;;;;5028583;28;20315;-49
2021/01/22 02:20:35;;;;;;;2.43;1.90;;;7.80;99.90;;;;;;5008474;28;20245;-49
2021/01/22 02:23:03;;;;;;;4.00;2.17;;;7.70;99.90;;;;;;5008862;28;20724;-49
2021/01/22 02:25:35;;;;;;;2.00;1.80;;;7.80;99.90;;;;;;5006643;28;20591;-48
2021/01/22 02:28:08;;;;;;;2.67;2.17;;;7.80;99.90;;;;;;5007794;28;20701;-49
2021/01/22 02:30:35;;;;;;;2.10;1.90;;;7.80;99.90;;;;;;4989619;28;20745;-49
2021/01/22 02:33:06;;;;;;;2.63;2.13;;;7.80;99.90;;;;;;4989561;28;20701;-49
2021/01/22 02:35:35;;;;;;;2.73;2.00;;;7.80;99.90;;;;;;5001823;28;20225;-49
2021/01/22 02:38:05;;;;;;;2.73;2.43;;;7.80;99.90;;;;;;5008573;28;20259;-49
2021/01/22 02:40:34;;;;;;;2.67;1.80;;;7.90;99.90;;;;;;5017623;28;20253;-49
2021/01/22 02:43:04;;;;;;;3.00;1.87;;;7.90;99.90;;;;;;5028819;28;20252;-50
2021/01/22 02:45:32;;;;;;;2.00;1.80;;;7.90;99.90;;;;;;5027977;28;20244;-49
2021/01/22 02:47:59;;;;;;;1.63;1.53;;;7.90;99.90;;;;;;5027289;28;20228;-50
2021/01/22 02:50:32;;;;;;;2.00;1.70;;;7.90;99.90;;;;;;4988896;28;20633;-49
2021/01/22 02:53:02;;;;;;;2.03;1.77;;;7.90;99.90;;;;;;4989208;28;20238;-49
2021/01/22 02:55:30;;;;;;;2.40;1.53;;;8.00;99.90;;;;;;4988706;28;20230;-49
2021/01/22 02:58:07;;;;;;;3.10;1.63;;;8.00;99.90;;;;;;4995337;28;20241;-48
2021/01/22 03:00:42;;;;;;;2.83;1.60;;;8.00;99.90;;;;;;5008171;28;20738;-49
2021/01/22 03:03:18;;;;;;;2.37;1.57;;;8.00;99.90;;;;;;5006134;28;20240;-49
2021/01/22 03:05:47;;;;;;;1.33;1.23;;;8.00;99.90;;;;;;5018602;28;20235;-49
2021/01/22 03:08:19;;;;;;;2.77;1.40;;;8.10;99.90;;;;;;5013604;28;20661;-49
2021/01/22 03:10:49;;;;;;;2.57;1.43;;;8.10;99.90;;;;;;4989057;28;20257;-49
2021/01/22 03:13:18;;;;;;;2.70;1.30;;;8.10;99.90;;;;;;4988946;28;20265;-49
2021/01/22 03:15:46;;;;;;;1.47;1.20;;;8.10;99.90;;;;;;4988128;28;20296;-49
2021/01/22 03:18:16;;;;;;;1.57;1.20;;;8.10;99.90;;;;;;4989466;28;20234;-50
2021/01/22 03:20:44;;;;;;;2.87;1.40;;;8.10;99.90;;;;;;5018659;28;20525;-49
2021/01/22 03:23:14;;;;;;;1.20;1.10;;;8.10;99.90;;;;;;5028160;28;20243;-51
2021/01/22 03:25:42;;;;;;;2.47;1.20;;;8.10;99.90;;;;;;5027517;28;20707;-49
2021/01/22 03:28:11;;;;;;;4.00;1.40;;;8.10;99.90;;;;;;5028191;28;20700;-49
2021/01/22 03:30:39;;;;;;;3.03;1.27;;;8.20;99.90;;;;;;4995985;28;20658;-49
2021/01/22 03:33:06;;;;;;;1.13;1.00;;;8.20;99.90;;;;;;5008469;28;20324;-49
2021/01/22 03:35:34;;;;;;;1.97;1.33;;;8.20;99.90;;;;;;5007740;28;20418;-49
2021/01/22 03:38:02;;;;;;;1.97;1.20;;;8.20;99.90;;;;;;5008352;28;20245;-49
2021/01/22 03:40:30;;;;;;;2.60;1.33;;;8.20;99.90;;;;;;5015988;28;20229;-50
2021/01/22 03:42:58;;;;;;;2.33;1.20;;;8.20;99.90;;;;;;5028113;28;20228;-49
2021/01/22 03:45:26;;;;;;;1.87;1.30;;;8.20;99.90;;;;;;5025505;28;20228;-49
2021/01/22 03:47:55;;;;;;;2.13;1.07;;;8.20;99.90;;;;;;4988769;28;20229;-49
2021/01/22 03:50:22;;;;;;;1.70;1.10;;;8.20;99.90;;;;;;5008270;28;20316;-49
2021/01/22 03:52:49;;;;;;;1.50;0.53;;;7.90;99.90;;;;;;5008347;28;20241;-49
2021/01/22 03:55:17;;;;;;;1.00;0.63;;;7.50;99.90;;;;;;5006500;28;20225;-49
2021/01/22 03:57:44;;;;;;;1.03;0.43;;;7.30;99.90;;;;;;5012921;28;20233;-50
2021/01/22 04:00:13;;;;;;;0.67;0.67;;;7.10;99.90;;;;;;5005340;28;20260;-49
2021/01/22 04:02:40;;;;;;;0.60;0.40;;;6.80;99.90;;;;;;5017925;28;20259;-49
2021/01/22 04:05:12;;;;;;;1.40;0.50;;;6.60;99.90;;;;;;5026895;28;20232;-50
2021/01/22 04:07:39;;;;;;;0.67;0.47;;;6.40;99.90;;;;;;4988550;28;20253;-50
2021/01/22 04:10:08;;;;;;;0.30;0.30;;;6.20;99.90;;;;;;4988939;28;20258;-49
2021/01/22 04:12:35;;;;;;;1.27;0.33;;;6.00;99.90;;;;;;4988558;28;20317;-49
2021/01/22 04:15:03;;;;;;;1.50;0.40;;;5.80;99.90;;;;;;4989583;28;20245;-48
2021/01/22 04:17:30;;;;;;;1.03;0.43;;;5.60;99.90;;;;;;4993173;28;20402;-49
2021/01/22 04:19:58;;;;;;;0.57;0.23;;;5.50;99.90;;;;;;5014649;28;20570;-49
2021/01/22 04:22:27;;;;;;;0.27;0.27;;;5.50;99.90;;;;;;5021929;28;20228;-50
2021/01/22 04:24:55;;;;;;;1.10;0.30;;;5.40;99.90;;;;;;5009562;28;20241;-48
2021/01/22 04:27:22;;;;;;;0.30;0.30;;;5.30;99.90;;;;;;5015445;28;20632;-49
2021/01/22 04:29:49;;;;;;;0.73;0.30;;;5.40;99.90;;;;;;5030743;28;20236;-49
2021/01/22 04:32:17;;;;;;;0.43;0.30;;;5.40;99.90;;;;;;5031185;28;20243;-49
2021/01/22 04:34:44;;;;;;;0.10;0.10;;;5.30;99.90;;;;;;5030539;28;20235;-49
2021/01/22 04:37:12;;;;;;;0.20;0.20;;;5.30;99.90;;;;;;5015521;28;20236;-48
2021/01/22 04:39:42;;;;;;;0.30;0.30;;;5.20;99.90;;;;;;5011638;28;20991;-50
2021/01/22 04:42:10;;;;;;;1.27;0.30;;;5.20;99.90;;;;;;5011673;28;20229;-49
2021/01/22 04:44:37;;;;;;;0.33;0.33;;;5.20;99.90;;;;;;5010927;28;20229;-49
2021/01/22 04:47:08;;;;;;;0.30;0.30;;;5.10;99.90;;;;;;5020164;28;20240;-49
2021/01/22 04:49:39;;;;;;;0.30;0.30;;;5.00;99.90;;;;;;5031160;28;20584;-49
2021/01/22 04:52:11;;;;;;;0.47;0.47;;;5.00;99.90;;;;;;5030568;28;20239;-49
2021/01/22 04:54:44;;;;;;;0.90;0.60;;;5.00;99.90;;;;;;5022120;28;20236;-48
2021/01/22 04:57:14;;;;;;;1.23;0.70;;;5.00;99.90;;;;;;5006298;28;20230;-48
2021/01/22 04:59:49;;;;;;;0.77;0.70;;;5.00;99.90;;;;;;5013514;28;20474;-49
2021/01/22 05:02:18;;;;;;;1.17;0.80;;;4.90;99.90;;;;;;5030310;28;20318;-50
2021/01/22 05:04:46;;;;;;;3.67;0.80;;;4.90;99.90;;;;;;5013769;28;20232;-49
2021/01/22 05:07:14;;;;;;;1.00;0.80;;;4.90;99.90;;;;;;5012436;28;20554;-51
2021/01/22 05:09:42;;;;;;;1.30;1.20;;;4.90;99.90;;;;;;5012238;28;20692;-50
2021/01/22 05:12:10;;;;;;;0.83;0.80;;;4.90;99.90;;;;;;5010405;28;20476;-49
2021/01/22 05:14:38;;;;;;;1.70;1.60;;;4.90;99.90;;;;;;5010210;28;20260;-49
2021/01/22 05:17:07;;;;;;;1.73;1.63;;;4.90;99.90;;;;;;5010099;28;20539;-48
2021/01/22 05:19:36;;;;;;;2.33;2.10;;;4.80;99.90;;;;;;5010736;28;20275;-49
2021/01/22 05:22:05;;;;;;;1.83;1.73;;;4.80;99.90;;;;;;5009983;28;21065;-52
2021/01/22 05:24:34;;;;;;;2.30;2.10;;;4.80;99.90;;;;;;5009629;28;20302;-49
2021/01/22 05:27:06;;;;;;;2.50;2.30;;;4.80;99.90;;;;;;5020132;28;20572;-49
2021/01/22 05:29:35;;;;;;;1.83;1.70;;;4.80;99.90;;;;;;5013099;28;20531;-49
2021/01/22 05:32:26;;;;;;;2.53;1.33;;;4.90;99.90;;;;;;5009887;28;21032;-50
2021/01/22 05:34:54;;;;;;;1.53;1.43;;;4.80;99.90;;;;;;5009428;28;20503;-48
2021/01/22 05:37:24;;;;;;;1.30;1.20;;;4.80;99.90;;;;;;5006784;28;21054;-49
2021/01/22 05:40:10;;;;;;;1.50;1.40;;;4.80;99.90;;;;;;5010091;28;20259;-50
2021/01/22 05:42:53;;;;;;;2.97;1.40;;;4.80;99.90;;;;;;5010179;28;20472;-49
2021/01/22 05:45:39;;;;;;;1.60;1.50;;;4.80;99.90;;;;;;5008904;28;20488;-50
2021/01/22 05:48:18;;;;;;;2.10;1.60;;;4.80;99.90;;;;;;5013091;28;20535;-49
2021/01/22 05:50:49;;;;;;;1.83;1.60;;;4.80;99.90;;;;;;4991255;28;20529;-49
2021/01/22 05:53:18;;;;;;;1.60;1.50;;;4.80;99.90;;;;;;5005360;28;20884;-49
2021/01/22 05:55:47;;;;;;;1.60;1.50;;;4.80;99.90;;;;;;5007428;28;20562;-49
2021/01/22 05:58:29;;;;;;;2.13;1.90;;;4.80;99.90;;;;;;5005783;28;20515;-50
2021/01/22 06:01:08;;;;;;;2.20;2.00;;;4.70;99.90;;;;;;5004705;28;20506;-49
2021/01/22 06:03:36;;;;;;;3.07;2.30;;;4.70;99.90;;;;;;5009315;28;20898;-50
2021/01/22 06:06:06;;;;;;;2.30;1.97;;;4.70;99.90;;;;;;5009359;28;20298;-48
2021/01/22 06:08:34;;;;;;;2.93;2.40;;;4.60;99.90;;;;;;5018018;28;20522;-53
2021/01/22 06:11:02;;;;;;;3.47;2.80;;;4.60;99.90;;;;;;5009664;28;20499;-48
2021/01/22 06:13:31;;;;;;;2.77;2.20;;;4.60;99.90;;;;;;5009702;28;20502;-49
2021/01/22 06:16:00;;;;;;;3.00;2.53;;;4.60;99.90;;;;;;4998734;28;20507;-49
2021/01/22 06:18:32;;;;;;;2.70;2.50;;;4.60;99.90;;;;;;4998597;28;20519;-50
2021/01/22 06:21:14;;;;;;;2.63;2.43;;;4.60;99.90;;;;;;4996256;28;20826;-49
2021/01/22 06:23:44;;;;;;;3.20;2.90;;;4.50;99.90;;;;;;5006584;28;20479;-49
2021/01/22 06:26:13;;;;;;;2.80;2.30;;;4.50;99.90;;;;;;5008689;28;21040;-49
2021/01/22 06:28:43;;;;;;;3.70;3.10;;;4.40;99.90;;;;;;5017292;28;20484;-49
2021/01/22 06:31:11;;;;;;;4.07;2.97;;;4.30;99.90;;;;;;5007021;28;20838;-49
2021/01/22 06:33:40;;;;;;;5.37;3.03;;;4.30;99.90;;;;;;5000744;28;20553;-49
2021/01/22 06:36:09;;;;;;;3.23;2.93;;;4.30;99.90;;;;;;5003615;28;20482;-50
2021/01/22 06:38:41;;;;;;;3.23;2.80;;;4.30;99.90;;;;;;5006426;28;20580;-49
2021/01/22 06:41:09;;;;;;;3.07;2.80;;;4.30;99.90;;;;;;5000314;28;20549;-49
2021/01/22 06:43:37;;;;;;;4.00;3.10;;;4.30;99.90;;;;;;5006243;28;20514;-49
2021/01/22 06:46:09;;;;;;;3.83;3.10;;;4.30;99.90;;;;;;4988146;28;20538;-50
2021/01/22 06:48:53;;;;;;;4.90;3.37;;;4.20;99.90;;;;;;4988201;28;20568;-50
2021/01/22 06:51:22;;;;;;;6.07;3.20;;;4.20;99.90;;;;;;5018045;28;20478;-49
2021/01/22 06:54:10;;;;;;;3.80;3.50;;;4.20;99.90;;;;;;5006407;28;20565;-49
2021/01/22 06:57:11;;;;;;;6.43;3.20;;;4.20;99.90;;;;;;5018943;28;20977;-49
2021/01/22 06:59:38;;;;;;;3.40;3.10;;;4.20;99.90;;;;;;5012538;28;20497;-49
2021/01/22 07:02:43;;;;;;;3.30;3.03;;;4.30;99.90;;;;;;5006575;28;20468;-50
2021/01/22 07:05:44;;;;;;;3.50;3.20;;;4.30;99.90;;;;;;5005278;28;20498;-50
2021/01/22 07:08:14;;;;;;;4.00;3.27;;;4.30;99.90;;;;;;5002185;28;20559;-49
2021/01/22 07:10:59;;;;;;;4.47;4.07;;;4.30;99.90;;;;;;5004892;28;20696;-49
2021/01/22 07:13:37;;;;;;;4.30;3.77;;;4.40;99.90;;;;;;5004381;28;20500;-49
2021/01/22 07:16:07;;;;;;;5.53;3.90;;;4.30;99.90;;;;;;5004962;28;21034;-49
2021/01/22 07:18:43;;;;;;;7.27;4.60;;;4.40;99.90;;;;;;5005613;28;20550;-49
2021/01/22 07:21:29;;;;;;;5.87;4.87;;;4.40;99.90;;;;;;5007071;28;20842;-49
2021/01/22 07:23:59;;;;;;;7.17;5.77;;;4.40;99.90;;;;;;5005002;28;20570;-51
2021/01/22 07:26:34;;;;;;;7.90;5.60;;;4.40;99.90;;;;;;5003657;28;20597;-49
2021/01/22 07:29:23;;;;;;;7.77;6.60;;;4.40;99.90;;;;;;5005418;28;20927;-49
2021/01/22 07:31:58;;;;;;;10.43;7.07;;;4.40;99.90;;;;;;5005439;28;20621;-49
2021/01/22 07:34:50;;;;;;;8.20;7.13;;;4.40;99.90;;;;;;5004980;28;20828;-49
2021/01/22 07:37:21;;;;;;;7.93;7.13;;;4.40;99.90;;;;;;5005260;28;20910;-50
2021/01/22 07:39:49;;;;;;;10.33;8.27;;;4.40;99.90;;;;;;5008534;28;20477;-50
2021/01/22 07:42:19;;;;;;;9.43;7.80;;;4.40;99.90;;;;;;5015194;28;20477;-49
2021/01/22 07:44:52;;;;;;;11.80;8.47;;;4.40;99.90;;;;;;5024481;28;20569;-49
2021/01/22 07:47:28;;;;;;;11.10;8.27;;;4.40;99.90;;;;;;5008067;28;20561;-49
2021/01/22 07:50:00;;;;;;;10.57;8.53;;;4.40;99.90;;;;;;5002856;28;20483;-49
2021/01/22 07:52:29;;;;;;;8.97;8.00;;;4.40;99.90;;;;;;5003912;28;20514;-50
2021/01/22 07:54:58;;;;;;;10.40;8.17;;;4.40;99.90;;;;;;5016564;28;20489;-49
2021/01/22 07:57:26;;;;;;;11.03;8.43;;;4.40;99.90;;;;;;5009127;28;21033;-49
2021/01/22 07:59:57;;;;;;;12.57;9.03;;;4.40;99.90;;;;;;5013585;28;20876;-49
2021/01/22 08:02:25;;;;;;;10.37;8.57;;;4.40;99.90;;;;;;5028752;28;20493;-52
2021/01/22 08:04:58;;;;;;;10.60;8.13;;;4.40;99.90;;;;;;5028124;28;20484;-49
2021/01/22 08:07:37;;;;;;;11.20;8.30;;;4.40;99.90;;;;;;5028688;28;20507;-49
2021/01/22 08:10:07;;;;;;;10.33;7.97;;;4.40;99.90;;;;;;4989343;28;20571;-49
2021/01/22 08:12:36;;;;;;;9.37;8.33;;;4.50;99.90;;;;;;4989069;28;20960;-49
2021/01/22 08:15:17;;;;;;;10.53;7.87;;;4.50;99.90;;;;;;4988701;28;21012;-49
2021/01/22 08:17:45;;;;;;;9.23;8.23;;;4.50;99.90;;;;;;4989185;28;20793;-50
2021/01/22 08:20:15;;;;;;;9.53;7.97;;;4.50;99.90;;;;;;4989133;28;20475;-49
2021/01/22 08:22:43;;;;;;;11.10;8.53;;;4.50;99.90;;;;;;4989173;28;20935;-50
2021/01/22 08:25:12;;;;;;;12.00;9.23;;;4.50;99.90;;;;;;4988284;28;20551;-49
2021/01/22 08:27:40;;;;;;;10.40;9.10;;;4.50;99.90;;;;;;4989066;28;20573;-50
2021/01/22 08:30:09;;;;;;;14.30;9.00;;;4.50;99.90;;;;;;4988852;28;20535;-49
2021/01/22 08:32:37;;;;;;;13.33;9.13;;;4.50;99.90;;;;;;4988989;28;20554;-49
2021/01/22 08:35:11;;;;;;;13.83;10.00;;;4.50;99.90;;;;;;4998471;28;21086;-49
2021/01/22 08:37:40;;;;;;;14.73;10.80;;;4.50;99.90;;;;;;5005347;28;20835;-49
2021/01/22 08:40:09;;;;;;;12.43;9.83;;;4.60;99.90;;;;;;5007810;28;20474;-50
2021/01/22 08:42:38;;;;;;;18.40;10.17;;;4.70;99.90;;;;;;5013087;28;20499;-49
2021/01/22 08:45:07;;;;;;;16.00;10.20;;;4.70;99.90;;;;;;5004797;28;20248;-50
2021/01/22 08:47:42;;;;;;;19.90;9.97;;;4.70;99.90;;;;;;5014841;28;20463;-49
2021/01/22 08:50:17;;;;;;;18.03;10.20;;;4.70;99.90;;;;;;5013385;28;20996;-50
2021/01/22 08:52:45;;;;;;;11.27;9.00;;;4.70;99.90;;;;;;5014107;28;20480;-50
2021/01/22 08:55:20;;;;;;;13.43;10.20;;;4.70;99.90;;;;;;4998993;28;20478;-50
2021/01/22 08:58:04;;;;;;;14.63;9.40;;;4.70;99.90;;;;;;4998060;28;20482;-51
2021/01/22 09:00:32;;;;;;;13.33;9.80;;;4.70;99.90;;;;;;4997803;28;20824;-50
2021/01/22 09:03:00;;;;;;;13.27;9.77;;;4.70;99.90;;;;;;4998059;28;20884;-50
2021/01/22 09:05:29;;;;;;;13.60;10.70;;;4.70;99.90;;;;;;4998448;28;20475;-49
2021/01/22 09:08:08;;;;;;;12.83;10.47;;;4.80;99.90;;;;;;5020273;28;20487;-50
2021/01/22 09:10:41;;;;;;;13.93;10.47;;;4.80;99.90;;;;;;4998466;28;20557;-49
2021/01/22 09:13:13;;;;;;;13.77;10.40;;;4.80;99.90;;;;;;5001866;28;20468;-49
2021/01/22 09:15:41;;;;;;;14.47;9.97;;;4.80;99.90;;;;;;5005110;28;20494;-49
2021/01/22 09:18:20;;;;;;;19.73;10.70;;;4.80;99.90;;;;;;4993014;28;20523;-50
2021/01/22 09:20:58;;;;;;;14.80;10.30;;;4.80;99.90;;;;;;4987816;28;21304;-49
2021/01/22 09:23:27;;;;;;;14.13;10.80;;;4.90;99.90;;;;;;5023003;28;20482;-49
2021/01/22 09:25:54;;;;;;;16.17;11.07;;;4.90;99.90;;;;;;5026964;28;20569;-49
2021/01/22 09:28:22;;;;;;;12.20;10.70;;;4.90;99.90;;;;;;5027088;28;20760;-49
2021/01/22 09:30:50;;;;;;;18.63;10.07;;;5.00;99.90;;;;;;5012490;28;20486;-49
2021/01/22 09:33:17;;;;;;;12.13;10.40;;;5.00;99.90;;;;;;5001470;28;21001;-49
2021/01/22 09:35:45;;;;;;;15.60;10.93;;;5.00;99.90;;;;;;5006843;28;20476;-49
2021/01/22 09:38:13;;;;;;;14.10;10.47;;;5.00;99.90;;;;;;5007023;28;20561;-49
2021/01/22 09:40:41;;;;;;;14.57;10.50;;;5.00;99.90;;;;;;5003104;28;20472;-49
2021/01/22 09:43:08;;;;;;;15.47;10.73;;;5.10;99.90;;;;;;5000818;28;20507;-48
2021/01/22 09:45:36;;;;;;;14.23;10.83;;;5.20;99.90;;;;;;5004315;28;20587;-49
2021/01/22 09:48:03;;;;;;;14.03;9.53;;;5.30;99.90;;;;;;5007055;28;20530;-48
2021/01/22 09:50:31;;;;;;;13.23;10.37;;;5.40;99.90;;;;;;5023062;28;20471;-48
2021/01/22 09:52:58;;;;;;;16.63;10.47;;;5.40;99.90;;;;;;5006934;28;20484;-50
2021/01/22 09:55:26;;;;;;;15.10;10.30;;;5.30;99.90;;;;;;5011776;28;20228;-49
2021/01/22 09:57:54;;;;;;;14.20;10.43;;;5.30;99.90;;;;;;5005479;28;20565;-49
2021/01/22 10:00:22;;;;;;;16.17;10.50;;;5.40;99.90;;;;;;5004238;28;21010;-49
2021/01/22 10:02:49;;;;;;;13.13;10.50;;;5.40;99.90;;;;;;4996189;28;20587;-50
2021/01/22 10:05:17;;;;;;;15.10;10.83;;;5.30;99.90;;;;;;4996779;28;20472;-48
2021/01/22 10:07:44;;;;;;;17.37;10.30;;;5.30;99.90;;;;;;4994210;28;20539;-49
2021/01/22 10:10:12;;;;;;;13.90;9.87;;;5.40;99.90;;;;;;4994374;28;21083;-49
2021/01/22 10:12:39;;;;;;;13.33;10.17;;;5.50;99.90;;;;;;5002229;28;20518;-49
2021/01/22 10:15:10;;;;;;;12.67;9.97;;;5.50;99.90;;;;;;5004284;28;20472;-48
2021/01/22 10:17:38;;;;;;;12.97;9.87;;;5.60;99.90;;;;;;4997449;28;20844;-49
2021/01/22 10:20:07;;;;;;;11.87;9.80;;;5.70;99.90;;;;;;5004373;28;20237;-49
2021/01/22 10:22:34;;;;;;;15.53;10.20;;;5.70;99.90;;;;;;4992198;28;21039;-49
2021/01/22 10:25:02;;;;;;;14.60;10.30;;;5.70;99.90;;;;;;5002828;28;20324;-49
2021/01/22 10:27:30;;;;;;;13.93;10.70;;;5.80;99.90;;;;;;4999287;28;20570;-49
2021/01/22 10:29:57;;;;;;;10.80;9.30;;;5.80;99.90;;;;;;4993175;28;20539;-48
2021/01/22 10:32:25;;;;;;;11.60;8.83;;;5.80;99.90;;;;;;4999390;28;20498;-49
2021/01/22 10:34:53;;;;;;;13.77;9.00;;;5.80;99.90;;;;;;5004550;28;20910;-49
2021/01/22 10:37:21;;;;;;;11.47;9.10;;;5.80;99.90;;;;;;5005753;28;20468;-49
2021/01/22 10:39:49;;;;;;;15.50;8.50;;;5.80;99.90;;;;;;5005075;28;20260;-49
2021/01/22 10:42:16;;;;;;;14.70;8.67;;;5.80;99.90;;;;;;5001155;28;20479;-49
2021/01/22 10:44:44;;;;;;;13.40;7.77;;;5.80;99.90;;;;;;5008089;28;20472;-49
2021/01/22 10:47:11;;;;;;;9.67;7.30;;;5.80;99.90;;;;;;5014648;28;20521;-48
2021/01/22 10:49:57;;;;;;;8.23;6.30;;;5.80;99.90;;;;;;4999677;28;20299;-49
2021/01/22 10:52:24;;;;;;;11.53;7.37;;;5.80;99.90;;;;;;5004966;28;20240;-49
2021/01/22 10:54:51;;;;;;;9.80;6.83;;;5.80;99.90;;;;;;5004867;28;20237;-48
2021/01/22 10:57:19;;;;;;;9.33;6.93;;;5.90;99.90;;;;;;5005313;28;20476;-49
2021/01/22 11:00:13;;;;;;;10.17;7.20;;;5.80;99.90;;;;;;5005076;28;20238;-48
2021/01/22 11:02:40;;;;;;;14.30;6.83;;;5.80;99.90;;;;;;5005118;28;20237;-49
2021/01/22 11:05:10;;;;;;;11.63;6.80;;;5.80;99.90;;;;;;5004741;28;20562;-49
2021/01/22 11:07:38;;;;;;;11.30;6.70;;;5.80;99.90;;;;;;5004867;28;20244;-48
2021/01/22 11:10:07;;;;;;;10.53;6.30;;;5.80;99.90;;;;;;5005144;28;20600;-48
2021/01/22 11:12:35;;;;;;;12.73;6.50;;;5.80;99.90;;;;;;5004557;28;20319;-49
2021/01/22 11:15:02;;;;;;;11.40;6.80;;;5.90;99.90;;;;;;5003918;28;20327;-49
2021/01/22 11:17:37;;;;;;;12.77;6.83;;;5.90;99.90;;;;;;5004545;28;20241;-50
2021/01/22 11:20:06;;;;;;;11.90;6.47;;;6.00;99.90;;;;;;5004630;28;20528;-49
2021/01/22 11:22:35;;;;;;;8.47;6.00;;;6.10;99.90;;;;;;5004037;28;20229;-50
2021/01/22 11:25:05;;;;;;;10.83;6.23;;;6.20;99.90;;;;;;5015698;28;21073;-48
2021/01/22 11:27:33;;;;;;;12.80;6.50;;;6.10;99.90;;;;;;5013337;28;20537;-49
2021/01/22 11:30:06;;;;;;;10.70;5.77;;;6.10;99.90;;;;;;5011748;28;20236;-49
2021/01/22 11:32:34;;;;;;;12.27;5.30;;;6.20;99.90;;;;;;5010762;28;21086;-49
2021/01/22 11:35:03;;;;;;;17.70;5.93;;;6.40;99.90;;;;;;5007713;28;20637;-48
2021/01/22 11:37:31;;;;;;;11.37;5.87;;;6.60;99.90;;;;;;5011352;28;20479;-49
2021/01/22 11:39:59;;;;;;;8.73;5.53;;;6.60;99.90;;;;;;5003911;28;20237;-49
2021/01/22 11:42:27;;;;;;;13.03;5.93;;;6.60;99.90;;;;;;5001076;28;20241;-49
2021/01/22 11:44:54;;;;;;;12.00;5.70;;;6.60;99.90;;;;;;5025728;28;20224;-48
2021/01/22 11:47:21;;;;;;;9.13;5.30;;;6.50;99.90;;;;;;5015484;28;20762;-48
2021/01/22 11:49:48;;;;;;;6.63;4.73;;;6.50;99.90;;;;;;5016012;28;20483;-49
2021/01/22 11:52:16;;;;;;;10.70;5.20;;;6.60;99.90;;;;;;5010978;28;20283;-49
2021/01/22 11:54:43;;;;;;;14.40;5.60;;;6.70;99.90;;;;;;5011003;28;20663;-48
2021/01/22 11:57:12;;;;;;;10.33;5.07;;;6.80;99.90;;;;;;5011384;28;20657;-49
2021/01/22 11:59:40;;;;;;;10.33;5.20;;;6.80;99.90;;;;;;5010742;28;20228;-48
2021/01/22 12:02:07;;;;;;;9.17;5.07;;;6.90;99.90;;;;;;5005211;28;20672;-48
2021/01/22 12:04:35;;;;;;;13.67;5.77;;;7.00;99.90;;;;;;5010222;28;20241;-49
2021/01/22 12:07:02;;;;;;;8.60;4.90;;;7.10;99.90;;;;;;5011047;28;20348;-48
2021/01/22 12:09:30;;;;;;;12.70;5.60;;;7.00;99.90;;;;;;5011371;28;20291;-48
2021/01/22 12:11:57;;;;;;;13.63;5.30;;;7.00;99.90;;;;;;5009840;28;20746;-48
2021/01/22 12:14:26;;;;;;;7.67;5.20;;;7.00;99.90;;;;;;5008894;28;20605;-48
2021/01/22 12:16:53;;;;;;;10.97;5.90;;;7.10;99.90;;;;;;5002596;28;20312;-49
2021/01/22 12:19:22;;;;;;;13.27;5.77;;;7.00;99.90;;;;;;5009814;28;20244;-50
2021/01/22 12:21:49;;;;;;;11.47;5.27;;;7.00;99.90;;;;;;5009604;28;20237;-49
2021/01/22 12:24:17;;;;;;;11.97;5.80;;;7.00;99.90;;;;;;5016833;28;20236;-50
2021/01/22 12:26:46;;;;;;;11.53;6.10;;;7.00;99.90;;;;;;5021715;28;20738;-49
2021/01/22 12:29:13;;;;;;;10.07;5.60;;;6.80;99.90;;;;;;5011305;28;20407;-49
2021/01/22 12:31:42;;;;;;;11.57;6.73;;;6.80;99.90;;;;;;5009999;28;20286;-49
2021/01/22 12:34:10;;;;;;;13.33;6.70;;;6.70;99.90;;;;;;5010769;28;20247;-50
2021/01/22 12:36:37;;;;;;;9.77;6.07;;;6.70;99.90;;;;;;5007623;28;20337;-49
2021/01/22 12:39:05;;;;;;;8.93;6.20;;;6.80;99.90;;;;;;5001936;28;20307;-51
2021/01/22 12:41:34;;;;;;;11.40;6.93;;;6.90;99.90;;;;;;5017068;28;20319;-49
2021/01/22 12:44:01;;;;;;;9.40;6.40;;;6.90;99.90;;;;;;5022084;28;20233;-49
2021/01/22 12:46:29;;;;;;;11.70;6.40;;;6.90;99.90;;;;;;5007827;28;20233;-49
2021/01/22 12:48:57;;;;;;;15.23;6.37;;;6.80;99.90;;;;;;5002938;28;20775;-50
2021/01/22 12:51:25;;;;;;;10.57;6.30;;;6.80;99.90;;;;;;4999974;28;20241;-49
2021/01/22 12:53:53;;;;;;;7.87;5.50;;;6.70;99.90;;;;;;4996859;28;20233;-49
2021/01/22 12:56:20;;;;;;;9.53;5.30;;;6.70;99.90;;;;;;4998747;28;20265;-49
2021/01/22 12:58:48;;;;;;;9.77;4.90;;;6.70;99.90;;;;;;4976536;28;20238;-51
2021/01/22 13:01:15;;;;;;;11.40;4.70;;;6.60;99.90;;;;;;5009667;28;20233;-50
2021/01/22 13:03:43;;;;;;;10.47;4.53;;;6.60;99.90;;;;;;5029231;28;20263;-49
2021/01/22 13:06:11;;;;;;;10.73;4.87;;;6.60;99.90;;;;;;5011609;28;20368;-49
2021/01/22 13:08:39;;;;;;;14.63;5.37;;;6.70;99.90;;;;;;5000780;28;20336;-52